Pays
Station

 

Conditions  météo  pour  Dothan, Dothan Airport  -  Etats-Unis    Etats-Unis

  
23 °C
    
 
 

METAR pour Dothan, Dothan Airport :

KDHN 231230Z 20006KT 2SM BR OVC002 23/22 A3012 RMK AO2 T02280222

 

Voici le bulletin pour Dothan, Dothan Airport - Etats-Unis.
 
Le bulletin a été fait il y a 6 minutes, à 12:30 UTC .
Le vent soufflait à la vitesse de 3.1 mètres par seconde de Sud/Sud-ouest (200°).
 
La température était de 23 °C, avec un point de rosée à 22 °C.
La température ressentie était de 21 °C.
 
La pression atmosphérique était de 1020 hPa.
L'humidité relative était de 94.1%.
 
Le ciel était nuageux à partir d'une hauteur de 61 mètres
 
La visibilité globale était de 3219 mètres.
 
Actuellement brume.

 
 
 

Pays :   A   B   C   D   E   F   G   H   I   J   K   L   M   N   O   P   Q   R   S   T   U   V   W   Y   Z

 

Partenaires :  Info Météo avec Met'info
Météo Marine avec MeteoMarine.net
Infos Site  |  Infos Légales  |  Crédits  |  Confidentialité
Contactez-nous  |  Ajouter aux favoris
© 2013-2018 METAR - Tous droits réservés